sensor_id;sensor_type;location;lat;lon;timestamp;P1;durP1;ratioP1;P2;durP2;ratioP2
76896;SDS011;65856;52.178;21.176;2023-12-20T00:01:16;15.50;;;8.80;;
76896;SDS011;65856;52.178;21.176;2023-12-20T00:03:42;13.20;;;8.50;;
76896;SDS011;65856;52.178;21.176;2023-12-20T00:06:07;13.10;;;8.10;;
76896;SDS011;65856;52.178;21.176;2023-12-20T00:08:33;13.60;;;8.90;;
76896;SDS011;65856;52.178;21.176;2023-12-20T00:10:58;14.40;;;7.70;;
76896;SDS011;65856;52.178;21.176;2023-12-20T00:13:23;13.20;;;8.00;;
76896;SDS011;65856;52.178;21.176;2023-12-20T00:15:49;14.20;;;8.60;;
76896;SDS011;65856;52.178;21.176;2023-12-20T00:18:14;13.30;;;7.90;;
76896;SDS011;65856;52.178;21.176;2023-12-20T00:20:40;14.90;;;8.50;;
76896;SDS011;65856;52.178;21.176;2023-12-20T00:23:05;13.10;;;7.90;;
76896;SDS011;65856;52.178;21.176;2023-12-20T00:25:30;13.00;;;7.40;;
76896;SDS011;65856;52.178;21.176;2023-12-20T00:27:56;12.30;;;7.70;;
76896;SDS011;65856;52.178;21.176;2023-12-20T00:30:21;12.10;;;7.70;;
76896;SDS011;65856;52.178;21.176;2023-12-20T00:32:46;12.40;;;7.60;;
76896;SDS011;65856;52.178;21.176;2023-12-20T00:35:15;11.30;;;7.20;;
76896;SDS011;65856;52.178;21.176;2023-12-20T00:37:42;13.10;;;7.50;;
76896;SDS011;65856;52.178;21.176;2023-12-20T00:40:09;13.70;;;7.40;;
76896;SDS011;65856;52.178;21.176;2023-12-20T00:42:35;12.00;;;7.40;;
76896;SDS011;65856;52.178;21.176;2023-12-20T00:45:03;12.20;;;7.40;;
76896;SDS011;65856;52.178;21.176;2023-12-20T00:47:30;9.50;;;6.70;;
76896;SDS011;65856;52.178;21.176;2023-12-20T00:49:56;10.70;;;7.20;;
76896;SDS011;65856;52.178;21.176;2023-12-20T00:52:22;13.80;;;7.40;;
76896;SDS011;65856;52.178;21.176;2023-12-20T00:54:48;9.60;;;6.10;;
76896;SDS011;65856;52.178;21.176;2023-12-20T00:57:13;10.40;;;6.70;;
76896;SDS011;65856;52.178;21.176;2023-12-20T00:59:39;10.10;;;6.30;;
76896;SDS011;65856;52.178;21.176;2023-12-20T01:02:04;11.30;;;6.60;;
76896;SDS011;65856;52.178;21.176;2023-12-20T01:04:30;13.80;;;7.10;;
76896;SDS011;65856;52.178;21.176;2023-12-20T01:06:55;9.90;;;6.20;;
76896;SDS011;65856;52.178;21.176;2023-12-20T01:09:20;11.20;;;6.30;;
76896;SDS011;65856;52.178;21.176;2023-12-20T01:11:49;10.30;;;6.20;;
76896;SDS011;65856;52.178;21.176;2023-12-20T01:14:14;10.20;;;6.40;;
76896;SDS011;65856;52.178;21.176;2023-12-20T01:16:40;10.00;;;6.20;;
76896;SDS011;65856;52.178;21.176;2023-12-20T01:19:05;10.60;;;6.00;;
76896;SDS011;65856;52.178;21.176;2023-12-20T01:21:30;8.80;;;6.00;;
76896;SDS011;65856;52.178;21.176;2023-12-20T01:23:56;9.10;;;5.50;;
76896;SDS011;65856;52.178;21.176;2023-12-20T01:26:21;8.70;;;5.60;;
76896;SDS011;65856;52.178;21.176;2023-12-20T01:28:47;8.90;;;5.70;;
76896;SDS011;65856;52.178;21.176;2023-12-20T01:31:12;8.50;;;5.60;;
76896;SDS011;65856;52.178;21.176;2023-12-20T01:33:37;10.40;;;5.60;;
76896;SDS011;65856;52.178;21.176;2023-12-20T01:36:03;9.30;;;5.70;;
76896;SDS011;65856;52.178;21.176;2023-12-20T01:38:29;8.30;;;5.70;;
76896;SDS011;65856;52.178;21.176;2023-12-20T01:40:54;9.00;;;5.80;;
76896;SDS011;65856;52.178;21.176;2023-12-20T01:43:20;8.90;;;5.60;;
76896;SDS011;65856;52.178;21.176;2023-12-20T01:45:46;9.60;;;5.90;;
76896;SDS011;65856;52.178;21.176;2023-12-20T01:48:12;7.70;;;5.20;;
76896;SDS011;65856;52.178;21.176;2023-12-20T01:50:39;7.50;;;5.50;;
76896;SDS011;65856;52.178;21.176;2023-12-20T01:53:07;8.30;;;5.60;;
76896;SDS011;65856;52.178;21.176;2023-12-20T01:55:36;9.80;;;5.50;;
76896;SDS011;65856;52.178;21.176;2023-12-20T01:58:05;7.40;;;5.40;;
76896;SDS011;65856;52.178;21.176;2023-12-20T02:00:31;9.10;;;5.30;;
76896;SDS011;65856;52.178;21.176;2023-12-20T02:03:00;8.70;;;5.30;;
76896;SDS011;65856;52.178;21.176;2023-12-20T02:05:27;7.70;;;5.20;;
76896;SDS011;65856;52.178;21.176;2023-12-20T02:07:53;7.90;;;5.10;;
76896;SDS011;65856;52.178;21.176;2023-12-20T02:10:19;8.10;;;5.30;;
76896;SDS011;65856;52.178;21.176;2023-12-20T02:12:44;8.40;;;5.40;;
76896;SDS011;65856;52.178;21.176;2023-12-20T02:15:09;9.60;;;5.60;;
76896;SDS011;65856;52.178;21.176;2023-12-20T02:17:36;7.70;;;5.10;;
76896;SDS011;65856;52.178;21.176;2023-12-20T02:20:01;8.10;;;5.30;;
76896;SDS011;65856;52.178;21.176;2023-12-20T02:22:27;8.50;;;5.10;;
76896;SDS011;65856;52.178;21.176;2023-12-20T02:24:53;9.40;;;5.50;;
76896;SDS011;65856;52.178;21.176;2023-12-20T02:27:19;8.60;;;4.80;;
76896;SDS011;65856;52.178;21.176;2023-12-20T02:29:47;7.20;;;4.60;;
76896;SDS011;65856;52.178;21.176;2023-12-20T02:32:13;9.00;;;5.10;;
76896;SDS011;65856;52.178;21.176;2023-12-20T02:34:38;8.80;;;5.10;;
76896;SDS011;65856;52.178;21.176;2023-12-20T02:37:04;9.10;;;5.10;;
76896;SDS011;65856;52.178;21.176;2023-12-20T02:39:30;9.10;;;4.90;;
76896;SDS011;65856;52.178;21.176;2023-12-20T02:41:55;6.40;;;4.50;;
76896;SDS011;65856;52.178;21.176;2023-12-20T02:44:21;8.60;;;4.80;;
76896;SDS011;65856;52.178;21.176;2023-12-20T02:46:46;7.70;;;4.40;;
76896;SDS011;65856;52.178;21.176;2023-12-20T02:49:11;6.50;;;4.50;;
76896;SDS011;65856;52.178;21.176;2023-12-20T02:51:37;6.50;;;4.30;;
76896;SDS011;65856;52.178;21.176;2023-12-20T02:54:05;6.70;;;4.50;;
76896;SDS011;65856;52.178;21.176;2023-12-20T02:56:32;7.30;;;4.30;;
76896;SDS011;65856;52.178;21.176;2023-12-20T02:58:58;6.20;;;4.30;;
76896;SDS011;65856;52.178;21.176;2023-12-20T03:01:23;6.50;;;4.30;;
76896;SDS011;65856;52.178;21.176;2023-12-20T03:03:49;8.20;;;4.40;;
76896;SDS011;65856;52.178;21.176;2023-12-20T03:06:18;6.60;;;3.90;;
76896;SDS011;65856;52.178;21.176;2023-12-20T03:08:44;5.80;;;3.80;;
76896;SDS011;65856;52.178;21.176;2023-12-20T03:11:10;8.40;;;3.80;;
76896;SDS011;65856;52.178;21.176;2023-12-20T03:13:36;6.60;;;3.50;;
76896;SDS011;65856;52.178;21.176;2023-12-20T03:16:08;5.70;;;3.50;;
76896;SDS011;65856;52.178;21.176;2023-12-20T03:18:37;5.80;;;3.30;;
76896;SDS011;65856;52.178;21.176;2023-12-20T03:21:03;5.30;;;3.60;;
76896;SDS011;65856;52.178;21.176;2023-12-20T03:23:29;5.30;;;3.40;;
76896;SDS011;65856;52.178;21.176;2023-12-20T03:25:56;6.20;;;3.50;;
76896;SDS011;65856;52.178;21.176;2023-12-20T03:28:22;5.30;;;3.50;;
76896;SDS011;65856;52.178;21.176;2023-12-20T03:30:48;4.80;;;3.40;;
76896;SDS011;65856;52.178;21.176;2023-12-20T03:33:14;4.80;;;3.60;;
76896;SDS011;65856;52.178;21.176;2023-12-20T03:35:39;5.50;;;3.80;;
76896;SDS011;65856;52.178;21.176;2023-12-20T03:38:04;7.00;;;4.20;;
76896;SDS011;65856;52.178;21.176;2023-12-20T03:40:30;7.10;;;3.80;;
76896;SDS011;65856;52.178;21.176;2023-12-20T03:42:55;5.50;;;3.80;;
76896;SDS011;65856;52.178;21.176;2023-12-20T03:45:21;5.70;;;3.50;;
76896;SDS011;65856;52.178;21.176;2023-12-20T03:47:46;5.20;;;3.10;;
76896;SDS011;65856;52.178;21.176;2023-12-20T03:50:12;5.10;;;3.10;;
76896;SDS011;65856;52.178;21.176;2023-12-20T03:52:38;5.20;;;3.20;;
76896;SDS011;65856;52.178;21.176;2023-12-20T03:55:03;4.20;;;2.90;;
76896;SDS011;65856;52.178;21.176;2023-12-20T03:57:29;5.60;;;3.30;;
76896;SDS011;65856;52.178;21.176;2023-12-20T03:59:55;4.80;;;3.00;;
76896;SDS011;65856;52.178;21.176;2023-12-20T04:02:20;4.60;;;3.00;;
76896;SDS011;65856;52.178;21.176;2023-12-20T04:04:46;4.90;;;3.20;;
76896;SDS011;65856;52.178;21.176;2023-12-20T04:07:11;5.30;;;3.00;;
76896;SDS011;65856;52.178;21.176;2023-12-20T04:09:36;4.70;;;3.20;;
76896;SDS011;65856;52.178;21.176;2023-12-20T04:12:02;4.40;;;3.00;;
76896;SDS011;65856;52.178;21.176;2023-12-20T04:14:28;5.00;;;2.90;;
76896;SDS011;65856;52.178;21.176;2023-12-20T04:16:54;5.20;;;3.00;;
76896;SDS011;65856;52.178;21.176;2023-12-20T04:19:19;4.50;;;3.20;;
76896;SDS011;65856;52.178;21.176;2023-12-20T04:21:45;4.40;;;2.70;;
76896;SDS011;65856;52.178;21.176;2023-12-20T04:24:10;4.60;;;3.10;;
76896;SDS011;65856;52.178;21.176;2023-12-20T04:26:35;4.50;;;3.00;;
76896;SDS011;65856;52.178;21.176;2023-12-20T04:29:01;4.60;;;3.00;;
76896;SDS011;65856;52.178;21.176;2023-12-20T04:31:26;3.60;;;2.70;;
76896;SDS011;65856;52.178;21.176;2023-12-20T04:33:52;4.30;;;2.80;;
76896;SDS011;65856;52.178;21.176;2023-12-20T04:36:17;4.60;;;2.90;;
76896;SDS011;65856;52.178;21.176;2023-12-20T04:38:43;5.00;;;3.30;;
76896;SDS011;65856;52.178;21.176;2023-12-20T04:41:08;4.90;;;3.00;;
76896;SDS011;65856;52.178;21.176;2023-12-20T04:43:33;5.10;;;3.30;;
76896;SDS011;65856;52.178;21.176;2023-12-20T04:45:59;5.80;;;3.30;;
76896;SDS011;65856;52.178;21.176;2023-12-20T04:48:24;4.30;;;3.00;;
76896;SDS011;65856;52.178;21.176;2023-12-20T04:50:49;6.70;;;3.60;;
76896;SDS011;65856;52.178;21.176;2023-12-20T04:53:15;7.30;;;3.40;;
76896;SDS011;65856;52.178;21.176;2023-12-20T04:55:40;4.70;;;3.50;;
76896;SDS011;65856;52.178;21.176;2023-12-20T04:58:05;4.30;;;3.40;;
76896;SDS011;65856;52.178;21.176;2023-12-20T05:00:31;6.40;;;3.70;;
76896;SDS011;65856;52.178;21.176;2023-12-20T05:02:56;7.00;;;3.90;;
76896;SDS011;65856;52.178;21.176;2023-12-20T05:05:22;9.10;;;4.60;;
76896;SDS011;65856;52.178;21.176;2023-12-20T05:07:47;14.80;;;4.70;;
76896;SDS011;65856;52.178;21.176;2023-12-20T05:10:12;9.70;;;4.70;;
76896;SDS011;65856;52.178;21.176;2023-12-20T05:12:38;11.60;;;4.40;;
76896;SDS011;65856;52.178;21.176;2023-12-20T05:15:06;15.60;;;4.90;;
76896;SDS011;65856;52.178;21.176;2023-12-20T05:17:31;20.20;;;5.60;;
76896;SDS011;65856;52.178;21.176;2023-12-20T05:19:57;45.10;;;7.40;;
76896;SDS011;65856;52.178;21.176;2023-12-20T05:22:22;46.60;;;8.90;;
76896;SDS011;65856;52.178;21.176;2023-12-20T05:24:47;24.60;;;6.90;;
76896;SDS011;65856;52.178;21.176;2023-12-20T05:27:13;16.70;;;5.80;;
76896;SDS011;65856;52.178;21.176;2023-12-20T05:29:38;8.50;;;4.50;;
76896;SDS011;65856;52.178;21.176;2023-12-20T05:32:04;6.70;;;4.70;;
76896;SDS011;65856;52.178;21.176;2023-12-20T05:34:30;6.40;;;4.50;;
76896;SDS011;65856;52.178;21.176;2023-12-20T05:36:57;5.80;;;4.20;;
76896;SDS011;65856;52.178;21.176;2023-12-20T05:39:23;6.90;;;4.50;;
76896;SDS011;65856;52.178;21.176;2023-12-20T05:41:48;6.40;;;4.60;;
76896;SDS011;65856;52.178;21.176;2023-12-20T05:44:14;8.50;;;4.80;;
76896;SDS011;65856;52.178;21.176;2023-12-20T05:46:39;7.60;;;4.50;;
76896;SDS011;65856;52.178;21.176;2023-12-20T05:49:05;6.90;;;4.90;;
76896;SDS011;65856;52.178;21.176;2023-12-20T05:51:31;6.00;;;4.20;;
76896;SDS011;65856;52.178;21.176;2023-12-20T05:53:58;5.50;;;4.10;;
76896;SDS011;65856;52.178;21.176;2023-12-20T05:56:23;7.00;;;4.80;;
76896;SDS011;65856;52.178;21.176;2023-12-20T05:58:49;7.40;;;4.90;;
76896;SDS011;65856;52.178;21.176;2023-12-20T06:01:14;6.00;;;4.60;;
76896;SDS011;65856;52.178;21.176;2023-12-20T06:03:42;6.50;;;5.00;;
76896;SDS011;65856;52.178;21.176;2023-12-20T06:06:08;6.70;;;4.50;;
76896;SDS011;65856;52.178;21.176;2023-12-20T06:08:34;7.20;;;4.40;;
76896;SDS011;65856;52.178;21.176;2023-12-20T06:10:59;6.70;;;4.70;;
76896;SDS011;65856;52.178;21.176;2023-12-20T06:13:25;7.30;;;4.80;;
76896;SDS011;65856;52.178;21.176;2023-12-20T06:15:51;6.30;;;4.50;;
76896;SDS011;65856;52.178;21.176;2023-12-20T06:18:17;7.70;;;4.70;;
76896;SDS011;65856;52.178;21.176;2023-12-20T06:20:42;8.00;;;5.10;;
76896;SDS011;65856;52.178;21.176;2023-12-20T06:23:07;6.50;;;4.40;;
76896;SDS011;65856;52.178;21.176;2023-12-20T06:25:33;6.40;;;4.50;;
76896;SDS011;65856;52.178;21.176;2023-12-20T06:27:58;6.00;;;4.00;;
76896;SDS011;65856;52.178;21.176;2023-12-20T06:30:24;7.10;;;4.60;;
76896;SDS011;65856;52.178;21.176;2023-12-20T06:32:50;7.30;;;4.00;;
76896;SDS011;65856;52.178;21.176;2023-12-20T06:35:16;5.90;;;4.40;;
76896;SDS011;65856;52.178;21.176;2023-12-20T06:37:41;5.50;;;4.10;;
76896;SDS011;65856;52.178;21.176;2023-12-20T06:40:10;6.10;;;4.60;;
76896;SDS011;65856;52.178;21.176;2023-12-20T06:42:36;6.50;;;4.30;;
76896;SDS011;65856;52.178;21.176;2023-12-20T06:45:02;6.50;;;5.10;;
76896;SDS011;65856;52.178;21.176;2023-12-20T06:47:30;7.90;;;5.50;;
76896;SDS011;65856;52.178;21.176;2023-12-20T06:49:55;8.70;;;6.30;;
76896;SDS011;65856;52.178;21.176;2023-12-20T06:52:21;13.40;;;11.00;;
76896;SDS011;65856;52.178;21.176;2023-12-20T06:54:46;17.00;;;14.50;;
76896;SDS011;65856;52.178;21.176;2023-12-20T06:57:11;11.10;;;7.80;;
76896;SDS011;65856;52.178;21.176;2023-12-20T06:59:40;8.10;;;6.40;;
76896;SDS011;65856;52.178;21.176;2023-12-20T07:02:06;8.70;;;5.80;;
76896;SDS011;65856;52.178;21.176;2023-12-20T07:04:31;6.20;;;4.70;;
76896;SDS011;65856;52.178;21.176;2023-12-20T07:06:57;7.80;;;5.00;;
76896;SDS011;65856;52.178;21.176;2023-12-20T07:09:25;7.10;;;5.40;;
76896;SDS011;65856;52.178;21.176;2023-12-20T07:11:51;7.20;;;5.10;;
76896;SDS011;65856;52.178;21.176;2023-12-20T07:14:17;7.30;;;5.40;;
76896;SDS011;65856;52.178;21.176;2023-12-20T07:16:42;7.40;;;5.40;;
76896;SDS011;65856;52.178;21.176;2023-12-20T07:19:08;8.60;;;5.50;;
76896;SDS011;65856;52.178;21.176;2023-12-20T07:21:33;9.20;;;5.20;;
76896;SDS011;65856;52.178;21.176;2023-12-20T07:23:59;9.20;;;5.20;;
76896;SDS011;65856;52.178;21.176;2023-12-20T07:26:24;4.80;;;4.10;;
76896;SDS011;65856;52.178;21.176;2023-12-20T07:28:49;7.00;;;5.10;;
76896;SDS011;65856;52.178;21.176;2023-12-20T07:31:15;6.50;;;4.70;;
76896;SDS011;65856;52.178;21.176;2023-12-20T07:33:41;6.20;;;4.60;;
76896;SDS011;65856;52.178;21.176;2023-12-20T07:36:07;7.00;;;4.90;;
76896;SDS011;65856;52.178;21.176;2023-12-20T07:38:33;7.70;;;4.80;;
76896;SDS011;65856;52.178;21.176;2023-12-20T07:40:59;6.60;;;4.90;;
76896;SDS011;65856;52.178;21.176;2023-12-20T07:43:24;7.30;;;4.80;;
76896;SDS011;65856;52.178;21.176;2023-12-20T07:45:50;11.00;;;7.00;;
76896;SDS011;65856;52.178;21.176;2023-12-20T07:48:15;7.60;;;5.10;;
76896;SDS011;65856;52.178;21.176;2023-12-20T07:50:41;7.20;;;5.20;;
76896;SDS011;65856;52.178;21.176;2023-12-20T07:53:07;7.50;;;5.10;;
76896;SDS011;65856;52.178;21.176;2023-12-20T07:55:32;6.30;;;4.80;;
76896;SDS011;65856;52.178;21.176;2023-12-20T07:57:59;8.00;;;5.40;;
76896;SDS011;65856;52.178;21.176;2023-12-20T08:00:25;6.50;;;4.60;;
76896;SDS011;65856;52.178;21.176;2023-12-20T08:02:50;7.60;;;4.90;;
76896;SDS011;65856;52.178;21.176;2023-12-20T08:05:16;7.00;;;4.60;;
76896;SDS011;65856;52.178;21.176;2023-12-20T08:07:41;5.90;;;4.70;;
76896;SDS011;65856;52.178;21.176;2023-12-20T08:10:07;6.90;;;4.40;;
76896;SDS011;65856;52.178;21.176;2023-12-20T08:12:32;6.80;;;4.90;;
76896;SDS011;65856;52.178;21.176;2023-12-20T08:14:58;6.10;;;4.70;;
76896;SDS011;65856;52.178;21.176;2023-12-20T08:17:24;5.80;;;4.20;;
76896;SDS011;65856;52.178;21.176;2023-12-20T08:19:49;6.90;;;4.60;;
76896;SDS011;65856;52.178;21.176;2023-12-20T08:22:15;5.70;;;4.50;;
76896;SDS011;65856;52.178;21.176;2023-12-20T08:24:40;6.90;;;4.60;;
76896;SDS011;65856;52.178;21.176;2023-12-20T08:27:05;6.20;;;4.10;;
76896;SDS011;65856;52.178;21.176;2023-12-20T08:29:31;6.00;;;4.30;;
76896;SDS011;65856;52.178;21.176;2023-12-20T08:31:56;4.80;;;3.90;;
76896;SDS011;65856;52.178;21.176;2023-12-20T08:34:23;5.90;;;3.60;;
76896;SDS011;65856;52.178;21.176;2023-12-20T08:36:51;5.20;;;3.80;;
76896;SDS011;65856;52.178;21.176;2023-12-20T08:39:17;5.60;;;3.80;;
76896;SDS011;65856;52.178;21.176;2023-12-20T08:41:55;4.50;;;3.70;;
76896;SDS011;65856;52.178;21.176;2023-12-20T08:44:20;5.70;;;3.80;;
76896;SDS011;65856;52.178;21.176;2023-12-20T08:46:47;5.00;;;3.60;;
76896;SDS011;65856;52.178;21.176;2023-12-20T08:49:13;5.60;;;3.70;;
76896;SDS011;65856;52.178;21.176;2023-12-20T08:51:38;4.40;;;3.70;;
76896;SDS011;65856;52.178;21.176;2023-12-20T08:54:06;4.60;;;3.70;;
76896;SDS011;65856;52.178;21.176;2023-12-20T08:56:33;4.70;;;3.70;;
76896;SDS011;65856;52.178;21.176;2023-12-20T08:58:59;5.40;;;3.60;;
76896;SDS011;65856;52.178;21.176;2023-12-20T09:01:24;5.40;;;3.90;;
76896;SDS011;65856;52.178;21.176;2023-12-20T09:03:50;5.90;;;3.90;;
76896;SDS011;65856;52.178;21.176;2023-12-20T09:06:15;5.50;;;3.90;;
76896;SDS011;65856;52.178;21.176;2023-12-20T09:08:41;5.90;;;3.50;;
76896;SDS011;65856;52.178;21.176;2023-12-20T09:11:06;7.80;;;3.90;;
76896;SDS011;65856;52.178;21.176;2023-12-20T09:13:32;5.40;;;4.00;;
76896;SDS011;65856;52.178;21.176;2023-12-20T09:15:57;5.50;;;3.60;;
76896;SDS011;65856;52.178;21.176;2023-12-20T09:18:23;5.60;;;3.80;;
76896;SDS011;65856;52.178;21.176;2023-12-20T09:20:49;5.70;;;3.70;;
76896;SDS011;65856;52.178;21.176;2023-12-20T09:23:14;4.90;;;3.80;;
76896;SDS011;65856;52.178;21.176;2023-12-20T09:25:40;5.50;;;3.30;;
76896;SDS011;65856;52.178;21.176;2023-12-20T09:28:05;5.70;;;3.70;;
76896;SDS011;65856;52.178;21.176;2023-12-20T09:30:31;5.00;;;3.70;;
76896;SDS011;65856;52.178;21.176;2023-12-20T09:32:57;5.10;;;3.20;;
76896;SDS011;65856;52.178;21.176;2023-12-20T09:35:23;4.10;;;3.40;;
76896;SDS011;65856;52.178;21.176;2023-12-20T09:37:49;5.00;;;3.60;;
76896;SDS011;65856;52.178;21.176;2023-12-20T09:40:17;4.90;;;3.50;;
76896;SDS011;65856;52.178;21.176;2023-12-20T09:42:56;5.50;;;3.70;;
76896;SDS011;65856;52.178;21.176;2023-12-20T09:45:23;4.90;;;3.40;;
76896;SDS011;65856;52.178;21.176;2023-12-20T09:47:50;5.00;;;3.70;;
76896;SDS011;65856;52.178;21.176;2023-12-20T09:50:18;5.10;;;3.40;;
76896;SDS011;65856;52.178;21.176;2023-12-20T09:52:44;6.80;;;3.60;;
76896;SDS011;65856;52.178;21.176;2023-12-20T09:55:12;4.80;;;3.50;;
76896;SDS011;65856;52.178;21.176;2023-12-20T09:57:37;5.60;;;3.50;;
76896;SDS011;65856;52.178;21.176;2023-12-20T10:00:03;5.80;;;3.30;;
76896;SDS011;65856;52.178;21.176;2023-12-20T10:02:30;7.40;;;3.70;;
76896;SDS011;65856;52.178;21.176;2023-12-20T10:04:57;5.10;;;3.60;;
76896;SDS011;65856;52.178;21.176;2023-12-20T10:07:22;4.40;;;3.40;;
76896;SDS011;65856;52.178;21.176;2023-12-20T10:09:48;5.00;;;3.10;;
76896;SDS011;65856;52.178;21.176;2023-12-20T10:12:17;5.20;;;3.70;;
76896;SDS011;65856;52.178;21.176;2023-12-20T10:14:42;5.60;;;3.60;;
76896;SDS011;65856;52.178;21.176;2023-12-20T10:17:08;6.00;;;4.00;;
76896;SDS011;65856;52.178;21.176;2023-12-20T10:19:33;6.50;;;3.90;;
76896;SDS011;65856;52.178;21.176;2023-12-20T10:21:59;5.60;;;3.90;;
76896;SDS011;65856;52.178;21.176;2023-12-20T10:24:25;5.80;;;3.90;;
76896;SDS011;65856;52.178;21.176;2023-12-20T10:27:04;5.20;;;3.70;;
76896;SDS011;65856;52.178;21.176;2023-12-20T10:29:36;5.30;;;3.70;;
76896;SDS011;65856;52.178;21.176;2023-12-20T10:32:22;5.70;;;4.10;;
76896;SDS011;65856;52.178;21.176;2023-12-20T10:34:48;5.00;;;3.80;;
76896;SDS011;65856;52.178;21.176;2023-12-20T10:37:14;5.00;;;3.90;;
76896;SDS011;65856;52.178;21.176;2023-12-20T10:39:42;5.60;;;3.70;;
76896;SDS011;65856;52.178;21.176;2023-12-20T10:42:10;6.60;;;3.50;;
76896;SDS011;65856;52.178;21.176;2023-12-20T10:44:36;4.50;;;3.40;;
76896;SDS011;65856;52.178;21.176;2023-12-20T10:47:03;4.70;;;3.30;;
76896;SDS011;65856;52.178;21.176;2023-12-20T10:49:30;4.60;;;3.50;;
76896;SDS011;65856;52.178;21.176;2023-12-20T10:51:57;4.70;;;3.20;;
76896;SDS011;65856;52.178;21.176;2023-12-20T10:54:25;5.10;;;3.60;;
76896;SDS011;65856;52.178;21.176;2023-12-20T10:56:51;5.60;;;3.30;;
76896;SDS011;65856;52.178;21.176;2023-12-20T10:59:19;6.30;;;3.70;;
76896;SDS011;65856;52.178;21.176;2023-12-20T11:01:49;4.80;;;3.60;;
76896;SDS011;65856;52.178;21.176;2023-12-20T11:04:19;6.20;;;3.50;;
76896;SDS011;65856;52.178;21.176;2023-12-20T11:06:55;6.30;;;3.80;;
76896;SDS011;65856;52.178;21.176;2023-12-20T11:10:16;5.80;;;3.60;;
76896;SDS011;65856;52.178;21.176;2023-12-20T11:12:57;5.60;;;3.40;;
76896;SDS011;65856;52.178;21.176;2023-12-20T11:15:26;4.90;;;3.50;;
76896;SDS011;65856;52.178;21.176;2023-12-20T11:17:56;5.40;;;3.60;;
76896;SDS011;65856;52.178;21.176;2023-12-20T11:20:35;9.90;;;3.90;;
76896;SDS011;65856;52.178;21.176;2023-12-20T11:23:03;8.60;;;3.80;;
76896;SDS011;65856;52.178;21.176;2023-12-20T11:25:28;5.20;;;3.90;;
76896;SDS011;65856;52.178;21.176;2023-12-20T11:28:07;6.00;;;3.80;;
76896;SDS011;65856;52.178;21.176;2023-12-20T11:33:08;6.00;;;3.20;;
76896;SDS011;65856;52.178;21.176;2023-12-20T11:35:34;6.20;;;3.40;;
76896;SDS011;65856;52.178;21.176;2023-12-20T11:38:01;5.00;;;3.30;;
76896;SDS011;65856;52.178;21.176;2023-12-20T11:40:27;5.80;;;3.10;;
76896;SDS011;65856;52.178;21.176;2023-12-20T11:42:52;5.30;;;2.90;;
76896;SDS011;65856;52.178;21.176;2023-12-20T11:45:26;4.70;;;3.00;;
76896;SDS011;65856;52.178;21.176;2023-12-20T11:47:52;4.60;;;3.00;;
76896;SDS011;65856;52.178;21.176;2023-12-20T11:50:20;5.70;;;3.30;;
76896;SDS011;65856;52.178;21.176;2023-12-20T11:52:47;5.20;;;3.20;;
76896;SDS011;65856;52.178;21.176;2023-12-20T11:55:13;4.70;;;3.30;;
76896;SDS011;65856;52.178;21.176;2023-12-20T11:57:39;4.60;;;2.90;;
76896;SDS011;65856;52.178;21.176;2023-12-20T12:00:07;5.30;;;2.70;;
76896;SDS011;65856;52.178;21.176;2023-12-20T12:02:33;4.80;;;3.10;;
76896;SDS011;65856;52.178;21.176;2023-12-20T12:05:01;4.80;;;3.10;;
76896;SDS011;65856;52.178;21.176;2023-12-20T12:07:27;5.00;;;2.80;;
76896;SDS011;65856;52.178;21.176;2023-12-20T12:09:52;4.70;;;3.30;;
76896;SDS011;65856;52.178;21.176;2023-12-20T12:12:19;4.90;;;3.20;;
76896;SDS011;65856;52.178;21.176;2023-12-20T12:14:45;4.10;;;3.00;;
76896;SDS011;65856;52.178;21.176;2023-12-20T12:17:13;3.70;;;2.70;;
76896;SDS011;65856;52.178;21.176;2023-12-20T12:19:40;4.40;;;3.10;;
76896;SDS011;65856;52.178;21.176;2023-12-20T12:22:13;5.10;;;2.90;;
76896;SDS011;65856;52.178;21.176;2023-12-20T12:24:43;4.70;;;3.00;;
76896;SDS011;65856;52.178;21.176;2023-12-20T12:27:10;4.90;;;3.10;;
76896;SDS011;65856;52.178;21.176;2023-12-20T12:29:36;5.00;;;3.00;;
76896;SDS011;65856;52.178;21.176;2023-12-20T12:32:07;5.00;;;3.20;;
76896;SDS011;65856;52.178;21.176;2023-12-20T12:34:34;4.70;;;3.20;;
76896;SDS011;65856;52.178;21.176;2023-12-20T12:37:00;4.20;;;2.90;;
76896;SDS011;65856;52.178;21.176;2023-12-20T12:39:26;5.10;;;3.40;;
76896;SDS011;65856;52.178;21.176;2023-12-20T12:41:53;5.70;;;3.30;;
76896;SDS011;65856;52.178;21.176;2023-12-20T12:44:19;5.80;;;3.00;;
76896;SDS011;65856;52.178;21.176;2023-12-20T12:46:48;4.20;;;3.10;;
76896;SDS011;65856;52.178;21.176;2023-12-20T12:49:16;4.60;;;3.20;;
76896;SDS011;65856;52.178;21.176;2023-12-20T12:51:42;4.20;;;2.90;;
76896;SDS011;65856;52.178;21.176;2023-12-20T12:54:08;3.70;;;2.90;;
76896;SDS011;65856;52.178;21.176;2023-12-20T12:56:35;6.00;;;3.30;;
76896;SDS011;65856;52.178;21.176;2023-12-20T12:59:01;4.20;;;3.00;;
76896;SDS011;65856;52.178;21.176;2023-12-20T13:01:27;3.80;;;2.70;;
76896;SDS011;65856;52.178;21.176;2023-12-20T13:03:52;3.80;;;3.20;;
76896;SDS011;65856;52.178;21.176;2023-12-20T13:06:18;5.10;;;3.30;;
76896;SDS011;65856;52.178;21.176;2023-12-20T13:08:43;4.80;;;3.50;;
76896;SDS011;65856;52.178;21.176;2023-12-20T13:11:09;5.90;;;3.30;;
76896;SDS011;65856;52.178;21.176;2023-12-20T13:13:35;6.50;;;4.10;;
76896;SDS011;65856;52.178;21.176;2023-12-20T13:16:00;4.60;;;3.50;;
76896;SDS011;65856;52.178;21.176;2023-12-20T13:18:26;6.10;;;3.80;;
76896;SDS011;65856;52.178;21.176;2023-12-20T13:20:51;8.40;;;4.00;;
76896;SDS011;65856;52.178;21.176;2023-12-20T13:23:16;7.50;;;4.20;;
76896;SDS011;65856;52.178;21.176;2023-12-20T13:25:43;5.20;;;3.80;;
76896;SDS011;65856;52.178;21.176;2023-12-20T13:28:10;7.00;;;3.80;;
76896;SDS011;65856;52.178;21.176;2023-12-20T13:30:35;6.80;;;4.10;;
76896;SDS011;65856;52.178;21.176;2023-12-20T13:33:01;6.60;;;4.00;;
76896;SDS011;65856;52.178;21.176;2023-12-20T13:35:26;6.10;;;4.20;;
76896;SDS011;65856;52.178;21.176;2023-12-20T13:37:51;7.70;;;4.50;;
76896;SDS011;65856;52.178;21.176;2023-12-20T13:40:17;9.00;;;4.60;;
76896;SDS011;65856;52.178;21.176;2023-12-20T13:42:43;9.40;;;4.60;;
76896;SDS011;65856;52.178;21.176;2023-12-20T13:45:08;5.80;;;4.20;;
76896;SDS011;65856;52.178;21.176;2023-12-20T13:47:35;9.60;;;4.50;;
76896;SDS011;65856;52.178;21.176;2023-12-20T13:50:00;6.50;;;4.00;;
76896;SDS011;65856;52.178;21.176;2023-12-20T13:52:26;9.10;;;5.00;;
76896;SDS011;65856;52.178;21.176;2023-12-20T13:54:51;8.20;;;4.50;;
76896;SDS011;65856;52.178;21.176;2023-12-20T13:57:16;7.00;;;4.40;;
76896;SDS011;65856;52.178;21.176;2023-12-20T13:59:42;6.80;;;4.00;;
76896;SDS011;65856;52.178;21.176;2023-12-20T14:02:08;6.20;;;4.20;;
76896;SDS011;65856;52.178;21.176;2023-12-20T14:04:33;7.70;;;4.50;;
76896;SDS011;65856;52.178;21.176;2023-12-20T14:06:59;7.50;;;4.00;;
76896;SDS011;65856;52.178;21.176;2023-12-20T14:09:24;6.90;;;4.50;;
76896;SDS011;65856;52.178;21.176;2023-12-20T14:11:50;5.90;;;4.10;;
76896;SDS011;65856;52.178;21.176;2023-12-20T14:14:15;7.30;;;4.50;;
76896;SDS011;65856;52.178;21.176;2023-12-20T14:16:40;7.10;;;4.60;;
76896;SDS011;65856;52.178;21.176;2023-12-20T14:19:08;8.20;;;4.30;;
76896;SDS011;65856;52.178;21.176;2023-12-20T14:21:34;6.50;;;4.70;;
76896;SDS011;65856;52.178;21.176;2023-12-20T14:24:00;8.90;;;4.90;;
76896;SDS011;65856;52.178;21.176;2023-12-20T14:26:25;7.10;;;4.20;;
76896;SDS011;65856;52.178;21.176;2023-12-20T14:28:52;8.80;;;4.30;;
76896;SDS011;65856;52.178;21.176;2023-12-20T14:31:18;7.90;;;4.10;;